Time;durP1;ratioP1;P1;durP2;ratioP2;P2;SDS_P1;SDS_P2;PMS_P1;PMS_P2;Temp;Humidity;BMP_temperature;BMP_pressure;BME280_temperature;BME280_humidity;BME280_pressure;Samples;Min_cycle;Max_cycle;Signal;HPM_P1;HPM_P2
2023/07/12 00:00:17;;;;;;;7.40;0.95;;;;;;;;;;5095194;28;20044;-75
2023/07/12 00:02:47;;;;;;;1.48;1.38;;;;;;;;;;5095315;28;20036;-75
2023/07/12 00:05:12;;;;;;;0.40;0.40;;;;;;;;;;5095069;28;20086;-74
2023/07/12 00:07:38;;;;;;;0.30;0.30;;;;;;;;;;5083757;28;20021;-75
2023/07/12 00:10:11;;;;;;;0.43;0.43;;;;;;;;;;5075015;28;20067;-74
2023/07/12 00:12:36;;;;;;;0.20;0.20;;;;;;;;;;5074596;28;20028;-73
2023/07/12 00:15:02;;;;;;;0.60;0.60;;;;;;;;;;5075058;28;20464;-73
2023/07/12 00:17:27;;;;;;;0.20;0.20;;;;;;;;;;5074647;28;20464;-73
2023/07/12 00:19:52;;;;;;;0.20;0.20;;;;;;;;;;5074586;28;20033;-73
2023/07/12 00:22:18;;;;;;;3.03;0.80;;;;;;;;;;5074601;28;20063;-73
2023/07/12 00:24:43;;;;;;;0.30;0.30;;;;;;;;;;5074655;28;20115;-74
2023/07/12 00:27:09;;;;;;;0.22;0.22;;;;;;;;;;5074313;28;20384;-74
2023/07/12 00:29:34;;;;;;;0.30;0.30;;;;;;;;;;5056469;28;20119;-74
2023/07/12 00:32:00;;;;;;;0.55;0.55;;;;;;;;;;5074418;28;20025;-74
2023/07/12 00:34:25;;;;;;;0.95;0.95;;;;;;;;;;5073736;28;20032;-74
2023/07/12 00:36:51;;;;;;;0.20;0.20;;;;;;;;;;5080459;28;20035;-74
2023/07/12 00:39:16;;;;;;;0.30;0.30;;;;;;;;;;5094907;28;20078;-74
2023/07/12 00:41:56;;;;;;;0.20;0.20;;;;;;;;;;5075439;28;20036;-75
2023/07/12 00:44:31;;;;;;;0.20;0.20;;;;;;;;;;5094769;28;20086;-74
2023/07/12 00:46:57;;;;;;;1.55;0.93;;;;;;;;;;5094536;28;20075;-74
2023/07/12 00:49:23;;;;;;;0.20;0.20;;;;;;;;;;5094588;28;20062;-74
2023/07/12 00:51:49;;;;;;;0.20;0.20;;;;;;;;;;5059746;28;20509;-74
2023/07/12 00:54:16;;;;;;;0.32;0.32;;;;;;;;;;5094419;28;20071;-76
2023/07/12 00:56:43;;;;;;;0.30;0.30;;;;;;;;;;5094508;28;20372;-74
2023/07/12 00:59:14;;;;;;;0.20;0.20;;;;;;;;;;5074963;28;20372;-75
2023/07/12 01:01:39;;;;;;;0.20;0.20;;;;;;;;;;5056074;28;20029;-74
2023/07/12 01:04:06;;;;;;;0.20;0.20;;;;;;;;;;5073981;28;20028;-74
2023/07/12 01:06:31;;;;;;;0.20;0.20;;;;;;;;;;5039218;28;20039;-75
2023/07/12 01:08:59;;;;;;;0.30;0.30;;;;;;;;;;5073782;28;20388;-75
2023/07/12 01:11:25;;;;;;;1.30;1.30;;;;;;;;;;5056020;28;20032;-74
2023/07/12 01:13:51;;;;;;;0.20;0.20;;;;;;;;;;5086155;28;20483;-75
2023/07/12 01:16:18;;;;;;;0.25;0.25;;;;;;;;;;5072344;28;20159;-74
2023/07/12 01:18:43;;;;;;;1.85;0.75;;;;;;;;;;5073821;28;20060;-74
2023/07/12 01:21:11;;;;;;;0.40;0.40;;;;;;;;;;5073747;28;20086;-75
2023/07/12 01:23:37;;;;;;;1.20;1.20;;;;;;;;;;5092452;28;20124;-74
2023/07/12 01:26:14;;;;;;;0.25;0.25;;;;;;;;;;5075966;28;20047;-74
2023/07/12 01:28:43;;;;;;;5.25;4.78;;;;;;;;;;5072502;28;20122;-74
2023/07/12 01:31:08;;;;;;;2.55;2.22;;;;;;;;;;5071995;28;20468;-74
2023/07/12 01:33:34;;;;;;;0.20;0.20;;;;;;;;;;5071043;28;20044;-73
2023/07/12 01:35:59;;;;;;;0.47;0.47;;;;;;;;;;5053082;28;20168;-83
2023/07/12 01:38:24;;;;;;;0.20;0.20;;;;;;;;;;5061099;28;20372;-77
2023/07/12 01:40:50;;;;;;;0.20;0.20;;;;;;;;;;5053401;28;20046;-77
2023/07/12 01:43:16;;;;;;;0.30;0.30;;;;;;;;;;5071321;28;20042;-75
2023/07/12 01:45:41;;;;;;;0.50;0.50;;;;;;;;;;5070558;28;20125;-73
2023/07/12 01:48:07;;;;;;;0.20;0.20;;;;;;;;;;5055364;28;20433;-76
2023/07/12 01:50:32;;;;;;;0.70;0.70;;;;;;;;;;5054485;28;20430;-74
2023/07/12 01:52:58;;;;;;;1.95;1.60;;;;;;;;;;5073104;28;20041;-73
2023/07/12 01:55:23;;;;;;;0.20;0.20;;;;;;;;;;5073379;28;20028;-73
2023/07/12 01:57:48;;;;;;;0.30;0.30;;;;;;;;;;5055221;28;20028;-73
2023/07/12 02:00:14;;;;;;;0.20;0.20;;;;;;;;;;5056944;28;20078;-73
2023/07/12 02:02:42;;;;;;;0.55;0.55;;;;;;;;;;5075559;28;20032;-73
2023/07/12 02:05:07;;;;;;;5.72;4.25;;;;;;;;;;5093282;28;20440;-73
2023/07/12 02:07:33;;;;;;;0.20;0.20;;;;;;;;;;5091644;28;20483;-73
2023/07/12 02:10:08;;;;;;;0.20;0.20;;;;;;;;;;5093207;28;20035;-73
2023/07/12 02:12:33;;;;;;;4.72;3.53;;;;;;;;;;5093252;28;20067;-74
2023/07/12 02:14:59;;;;;;;0.30;0.30;;;;;;;;;;5091908;28;20062;-73
2023/07/12 02:17:24;;;;;;;0.90;0.90;;;;;;;;;;5093147;28;20028;-73
2023/07/12 02:19:50;;;;;;;0.20;0.20;;;;;;;;;;5093019;28;20066;-75
2023/07/12 02:22:17;;;;;;;0.20;0.20;;;;;;;;;;5092985;28;20379;-75
2023/07/12 02:24:42;;;;;;;1.42;0.60;;;;;;;;;;5092984;28;20028;-74
2023/07/12 02:27:08;;;;;;;0.25;0.25;;;;;;;;;;5092996;28;20055;-74
2023/07/12 02:29:33;;;;;;;0.20;0.20;;;;;;;;;;5092007;28;20036;-74
2023/07/12 02:31:59;;;;;;;0.20;0.20;;;;;;;;;;5092833;28;20032;-74
2023/07/12 02:34:25;;;;;;;0.20;0.20;;;;;;;;;;5092682;28;20028;-73
2023/07/12 02:36:50;;;;;;;0.20;0.20;;;;;;;;;;5086447;28;20028;-73
2023/07/12 02:39:16;;;;;;;0.38;0.38;;;;;;;;;;5090483;28;20036;-73
2023/07/12 02:41:41;;;;;;;0.20;0.20;;;;;;;;;;5092769;28;20024;-74
2023/07/12 02:44:07;;;;;;;0.30;0.30;;;;;;;;;;5092765;28;20113;-74
2023/07/12 02:46:32;;;;;;;0.20;0.20;;;;;;;;;;5091396;28;20109;-73
2023/07/12 02:48:58;;;;;;;0.20;0.20;;;;;;;;;;5074512;28;20071;-73
2023/07/12 02:51:23;;;;;;;0.20;0.20;;;;;;;;;;5073480;28;20480;-74
2023/07/12 02:53:50;;;;;;;11.68;5.70;;;;;;;;;;5091638;28;20028;-75
2023/07/12 02:56:15;;;;;;;0.30;0.30;;;;;;;;;;5090934;28;20042;-77
2023/07/12 02:58:41;;;;;;;2.40;1.40;;;;;;;;;;5094004;28;20135;-75
2023/07/12 03:01:06;;;;;;;0.20;0.20;;;;;;;;;;5094573;28;20050;-75
2023/07/12 03:03:32;;;;;;;0.77;0.65;;;;;;;;;;5090841;28;20032;-75
2023/07/12 03:06:05;;;;;;;0.20;0.20;;;;;;;;;;5091892;28;20055;-76
2023/07/12 03:08:30;;;;;;;0.40;0.40;;;;;;;;;;5091957;28;20139;-76
2023/07/12 03:10:59;;;;;;;0.20;0.20;;;;;;;;;;5092408;28;20107;-74
2023/07/12 03:13:28;;;;;;;0.30;0.30;;;;;;;;;;5092174;28;20032;-75
2023/07/12 03:15:53;;;;;;;0.20;0.20;;;;;;;;;;5090554;28;20078;-74
2023/07/12 03:18:19;;;;;;;0.20;0.20;;;;;;;;;;5091555;28;20063;-74
2023/07/12 03:20:44;;;;;;;0.20;0.20;;;;;;;;;;5091394;28;20577;-76
2023/07/12 03:23:10;;;;;;;0.20;0.20;;;;;;;;;;5091447;28;20028;-74
2023/07/12 03:25:35;;;;;;;0.35;0.35;;;;;;;;;;5091640;28;20502;-73
2023/07/12 03:28:00;;;;;;;0.20;0.20;;;;;;;;;;5091499;28;20024;-76
2023/07/12 03:30:26;;;;;;;0.20;0.20;;;;;;;;;;5091645;28;20032;-75
2023/07/12 03:32:52;;;;;;;0.20;0.20;;;;;;;;;;5091186;28;20036;-74
2023/07/12 03:35:18;;;;;;;0.20;0.20;;;;;;;;;;5091228;28;20063;-74
2023/07/12 03:37:43;;;;;;;0.20;0.20;;;;;;;;;;5090535;28;20035;-74
2023/07/12 03:40:09;;;;;;;0.65;0.65;;;;;;;;;;5091531;28;20062;-74
2023/07/12 03:42:35;;;;;;;0.20;0.20;;;;;;;;;;5072905;28;20036;-74
2023/07/12 03:45:00;;;;;;;0.20;0.20;;;;;;;;;;5091144;28;20043;-74
2023/07/12 03:47:26;;;;;;;1.15;1.10;;;;;;;;;;5091242;28;20032;-73
2023/07/12 03:49:51;;;;;;;0.30;0.30;;;;;;;;;;5091121;28;20103;-73
2023/07/12 03:52:17;;;;;;;0.20;0.20;;;;;;;;;;5089693;28;20071;-74
2023/07/12 03:54:42;;;;;;;0.20;0.20;;;;;;;;;;5090451;28;20086;-74
2023/07/12 03:57:08;;;;;;;0.20;0.20;;;;;;;;;;5053528;28;20048;-74
2023/07/12 03:59:33;;;;;;;0.30;0.30;;;;;;;;;;5067853;28;20031;-75
2023/07/12 04:01:59;;;;;;;0.30;0.30;;;;;;;;;;5065021;28;20372;-74
2023/07/12 04:04:24;;;;;;;0.20;0.20;;;;;;;;;;5088574;28;20054;-74
2023/07/12 04:06:50;;;;;;;0.20;0.20;;;;;;;;;;5081465;28;20381;-74
2023/07/12 04:09:16;;;;;;;0.20;0.20;;;;;;;;;;5087196;28;20031;-77
2023/07/12 04:11:41;;;;;;;0.20;0.20;;;;;;;;;;5090482;28;20146;-74
2023/07/12 04:14:07;;;;;;;0.60;0.60;;;;;;;;;;5090786;28;20032;-74
2023/07/12 04:16:32;;;;;;;0.20;0.20;;;;;;;;;;5090824;28;20115;-74
2023/07/12 04:18:58;;;;;;;0.30;0.30;;;;;;;;;;5089283;28;20047;-74
2023/07/12 04:21:24;;;;;;;0.20;0.20;;;;;;;;;;5090771;28;20049;-73
2023/07/12 04:23:49;;;;;;;0.68;0.40;;;;;;;;;;5090695;28;20078;-74
2023/07/12 04:26:17;;;;;;;0.20;0.20;;;;;;;;;;5090848;28;20485;-77
2023/07/12 04:28:46;;;;;;;0.20;0.20;;;;;;;;;;5072762;28;20044;-73
2023/07/12 04:31:12;;;;;;;0.20;0.20;;;;;;;;;;5093441;28;20031;-75
2023/07/12 04:33:37;;;;;;;0.20;0.20;;;;;;;;;;5089708;28;20387;-73
2023/07/12 04:36:13;;;;;;;0.32;0.32;;;;;;;;;;5071548;28;20121;-74
2023/07/12 04:38:38;;;;;;;0.20;0.20;;;;;;;;;;5090793;28;20036;-74
2023/07/12 04:41:04;;;;;;;0.28;0.28;;;;;;;;;;5069707;28;20028;-75
2023/07/12 04:43:30;;;;;;;0.20;0.20;;;;;;;;;;5080701;28;20040;-76
2023/07/12 04:45:56;;;;;;;110.05;29.92;;;;;;;;;;5088348;28;20491;-75
2023/07/12 04:48:22;;;;;;;0.57;0.57;;;;;;;;;;5088762;28;20288;-76
2023/07/12 04:50:51;;;;;;;2.47;2.33;;;;;;;;;;5082783;28;20028;-75
2023/07/12 04:53:17;;;;;;;0.20;0.20;;;;;;;;;;5087520;28;20032;-78
2023/07/12 04:55:42;;;;;;;0.30;0.30;;;;;;;;;;5083403;28;20119;-75
2023/07/12 04:58:08;;;;;;;0.20;0.20;;;;;;;;;;5082045;28;20538;-75
2023/07/12 05:00:33;;;;;;;8.43;7.63;;;;;;;;;;5061440;28;20113;-73
2023/07/12 05:02:59;;;;;;;0.20;0.20;;;;;;;;;;5092501;28;20040;-77
2023/07/12 05:05:25;;;;;;;0.20;0.20;;;;;;;;;;5087327;28;20035;-81
2023/07/12 05:07:50;;;;;;;0.20;0.20;;;;;;;;;;5088977;28;20055;-76
2023/07/12 05:10:16;;;;;;;0.30;0.30;;;;;;;;;;5071186;28;20028;-75
2023/07/12 05:12:42;;;;;;;0.20;0.20;;;;;;;;;;5100204;28;20065;-75
2023/07/12 05:15:08;;;;;;;0.20;0.20;;;;;;;;;;5089131;28;20364;-78
2023/07/12 05:17:34;;;;;;;0.20;0.20;;;;;;;;;;5070830;28;20495;-75
2023/07/12 05:20:00;;;;;;;0.30;0.30;;;;;;;;;;5089583;28;20032;-74
2023/07/12 05:22:25;;;;;;;0.20;0.20;;;;;;;;;;5093435;28;20468;-76
2023/07/12 05:24:51;;;;;;;0.93;0.93;;;;;;;;;;5087981;28;20586;-74
2023/07/12 05:27:17;;;;;;;0.43;0.43;;;;;;;;;;5070472;28;20036;-76
2023/07/12 05:29:42;;;;;;;0.20;0.20;;;;;;;;;;5088877;28;20483;-77
2023/07/12 05:32:08;;;;;;;0.50;0.50;;;;;;;;;;5089750;28;20467;-76
2023/07/12 05:34:33;;;;;;;0.20;0.20;;;;;;;;;;5088553;28;20538;-73
2023/07/12 05:36:59;;;;;;;0.20;0.20;;;;;;;;;;5055967;28;20037;-73
2023/07/12 05:39:24;;;;;;;2.15;2.05;;;;;;;;;;5080933;28;20028;-75
2023/07/12 05:41:49;;;;;;;1.77;1.67;;;;;;;;;;5074428;28;20106;-74
2023/07/12 05:44:15;;;;;;;0.30;0.30;;;;;;;;;;5056828;28;20040;-75
2023/07/12 05:46:41;;;;;;;2.15;2.05;;;;;;;;;;5051127;28;20045;-77
2023/07/12 05:49:06;;;;;;;0.30;0.30;;;;;;;;;;5079863;28;20036;-75
2023/07/12 05:51:32;;;;;;;0.30;0.30;;;;;;;;;;5067818;28;20428;-76
2023/07/12 05:53:58;;;;;;;0.50;0.50;;;;;;;;;;5080762;28;20025;-75
2023/07/12 05:56:24;;;;;;;0.30;0.30;;;;;;;;;;5086776;28;20449;-78
2023/07/12 05:58:49;;;;;;;0.45;0.40;;;;;;;;;;5087270;28;20107;-76
2023/07/12 06:01:17;;;;;;;0.28;0.28;;;;;;;;;;5088023;28;20130;-78
2023/07/12 06:03:42;;;;;;;0.85;0.85;;;;;;;;;;5089041;28;20024;-79
2023/07/12 06:06:08;;;;;;;1.88;1.77;;;;;;;;;;5089006;28;20510;-76
2023/07/12 06:08:33;;;;;;;0.40;0.40;;;;;;;;;;5089375;28;20569;-74
2023/07/12 06:10:59;;;;;;;1.15;1.05;;;;;;;;;;5089028;28;20387;-75
2023/07/12 06:13:24;;;;;;;3.13;1.80;;;;;;;;;;5089030;28;20035;-76
2023/07/12 06:15:50;;;;;;;0.40;0.40;;;;;;;;;;5087215;28;20036;-76
2023/07/12 06:18:15;;;;;;;12.60;1.75;;;;;;;;;;5087962;28;20143;-75
2023/07/12 06:20:41;;;;;;;0.40;0.40;;;;;;;;;;5088842;28;20096;-75
2023/07/12 06:23:06;;;;;;;0.65;0.65;;;;;;;;;;5084121;28;20053;-77
2023/07/12 06:25:32;;;;;;;0.30;0.30;;;;;;;;;;5079637;28;20047;-74
2023/07/12 06:27:57;;;;;;;0.38;0.38;;;;;;;;;;5088291;28;20036;-85
2023/07/12 06:30:23;;;;;;;0.30;0.30;;;;;;;;;;5077256;28;20043;-77
2023/07/12 06:32:48;;;;;;;0.85;0.85;;;;;;;;;;5076338;28;20468;-74
2023/07/12 06:35:14;;;;;;;0.45;0.45;;;;;;;;;;5079775;28;20024;-74
2023/07/12 06:37:39;;;;;;;0.40;0.40;;;;;;;;;;5079541;28;20040;-77
2023/07/12 06:40:05;;;;;;;0.35;0.35;;;;;;;;;;5072197;28;20045;-75
2023/07/12 06:42:31;;;;;;;0.30;0.30;;;;;;;;;;5079477;28;20036;-75
2023/07/12 06:44:57;;;;;;;1.00;0.95;;;;;;;;;;5067185;28;20039;-75
2023/07/12 06:47:22;;;;;;;6.63;1.80;;;;;;;;;;5067361;28;20036;-77
2023/07/12 06:49:48;;;;;;;2.45;1.67;;;;;;;;;;5081211;28;20097;-74
2023/07/12 06:52:13;;;;;;;0.55;0.55;;;;;;;;;;5068162;28;20029;-74
2023/07/12 06:54:39;;;;;;;1.27;0.77;;;;;;;;;;5069664;28;20488;-74
2023/07/12 06:57:04;;;;;;;0.47;0.47;;;;;;;;;;5070967;28;20056;-77
2023/07/12 06:59:30;;;;;;;1.38;1.27;;;;;;;;;;5086807;28;20028;-80
2023/07/12 07:01:55;;;;;;;0.40;0.40;;;;;;;;;;5085789;28;20059;-93
2023/07/12 07:04:21;;;;;;;0.47;0.47;;;;;;;;;;5088638;28;20501;-77
2023/07/12 07:06:47;;;;;;;0.30;0.30;;;;;;;;;;5087318;28;20051;-76
2023/07/12 07:09:12;;;;;;;0.35;0.35;;;;;;;;;;5086876;28;20526;-76
2023/07/12 07:11:38;;;;;;;0.40;0.40;;;;;;;;;;5101683;28;20036;-86
2023/07/12 07:14:03;;;;;;;0.38;0.38;;;;;;;;;;5103213;28;20033;-76
2023/07/12 07:16:29;;;;;;;1.30;1.27;;;;;;;;;;5095847;28;20035;-81
2023/07/12 07:18:55;;;;;;;1.33;1.27;;;;;;;;;;5078175;28;20043;-75
2023/07/12 07:21:21;;;;;;;0.40;0.40;;;;;;;;;;5079696;28;20115;-76
2023/07/12 07:23:47;;;;;;;0.60;0.60;;;;;;;;;;5073009;28;20036;-77
2023/07/12 07:26:12;;;;;;;1.13;1.13;;;;;;;;;;5083182;28;20032;-77
2023/07/12 07:28:38;;;;;;;0.40;0.40;;;;;;;;;;5087671;28;20104;-75
2023/07/12 07:31:03;;;;;;;0.35;0.35;;;;;;;;;;5085731;28;20077;-77
2023/07/12 07:33:29;;;;;;;0.40;0.40;;;;;;;;;;5077482;28;20103;-75
2023/07/12 07:35:55;;;;;;;0.52;0.52;;;;;;;;;;5069787;28;20441;-75
2023/07/12 07:38:25;;;;;;;0.38;0.38;;;;;;;;;;5055527;28;20608;-75
2023/07/12 07:40:51;;;;;;;1.10;1.10;;;;;;;;;;5074968;28;20025;-76
2023/07/12 07:43:17;;;;;;;0.30;0.30;;;;;;;;;;5067787;28;20031;-77
2023/07/12 07:45:42;;;;;;;0.40;0.40;;;;;;;;;;5071346;28;20046;-79
2023/07/12 07:48:08;;;;;;;0.60;0.60;;;;;;;;;;5072128;28;20499;-78
2023/07/12 07:50:33;;;;;;;0.57;0.57;;;;;;;;;;5053776;28;20058;-76
2023/07/12 07:52:59;;;;;;;1.20;1.10;;;;;;;;;;5084625;28;20056;-79
2023/07/12 07:55:26;;;;;;;0.40;0.40;;;;;;;;;;5071613;28;20035;-79
2023/07/12 07:57:52;;;;;;;0.85;0.60;;;;;;;;;;5071079;28;20032;-82
2023/07/12 08:00:17;;;;;;;0.60;0.60;;;;;;;;;;5070643;28;20029;-82
2023/07/12 08:02:43;;;;;;;0.70;0.70;;;;;;;;;;5081071;28;20479;-79
2023/07/12 08:05:09;;;;;;;1.17;1.08;;;;;;;;;;5090928;28;20395;-80
2023/07/12 08:07:42;;;;;;;0.50;0.50;;;;;;;;;;5090978;28;20542;-77
2023/07/12 08:10:08;;;;;;;2.03;1.20;;;;;;;;;;5072997;28;20122;-80
2023/07/12 08:12:34;;;;;;;1.48;1.35;;;;;;;;;;5090489;28;20028;-78
2023/07/12 08:15:02;;;;;;;0.30;0.30;;;;;;;;;;5089052;28;20540;-80
2023/07/12 08:17:28;;;;;;;0.40;0.40;;;;;;;;;;5090289;28;20016;-79
2023/07/12 08:19:53;;;;;;;0.40;0.40;;;;;;;;;;5089802;28;20039;-80
2023/07/12 08:22:22;;;;;;;0.40;0.40;;;;;;;;;;5088371;28;20028;-79
2023/07/12 08:24:47;;;;;;;1.30;1.05;;;;;;;;;;5086350;28;20077;-80
2023/07/12 08:27:15;;;;;;;0.95;0.88;;;;;;;;;;5067065;28;20452;-79
2023/07/12 08:29:41;;;;;;;0.77;0.77;;;;;;;;;;5068422;28;20025;-80
2023/07/12 08:32:06;;;;;;;0.50;0.50;;;;;;;;;;5081439;28;20036;-82
2023/07/12 08:34:32;;;;;;;0.30;0.30;;;;;;;;;;5088031;28;20036;-77
2023/07/12 08:36:57;;;;;;;1.85;1.38;;;;;;;;;;5088159;28;20119;-80
2023/07/12 08:39:23;;;;;;;0.82;0.82;;;;;;;;;;5088871;28;20028;-82
2023/07/12 08:41:51;;;;;;;0.50;0.50;;;;;;;;;;5071397;28;20039;-81
2023/07/12 08:44:17;;;;;;;0.55;0.55;;;;;;;;;;5091852;28;20067;-82
2023/07/12 08:46:53;;;;;;;0.40;0.40;;;;;;;;;;5093439;28;20482;-80
2023/07/12 08:49:19;;;;;;;0.70;0.70;;;;;;;;;;5093723;28;20027;-79
2023/07/12 08:51:45;;;;;;;0.85;0.73;;;;;;;;;;5068541;28;20032;-82
2023/07/12 08:54:19;;;;;;;0.40;0.40;;;;;;;;;;5061020;28;20023;-83
2023/07/12 08:56:44;;;;;;;0.65;0.65;;;;;;;;;;5052573;28;20137;-82
2023/07/12 08:59:13;;;;;;;0.98;0.98;;;;;;;;;;5076780;28;20495;-78
2023/07/12 09:01:44;;;;;;;0.80;0.80;;;;;;;;;;5051853;28;20033;-79
2023/07/12 09:04:27;;;;;;;7.50;1.77;;;;;;;;;;5082053;28;20488;-82
2023/07/12 09:06:53;;;;;;;3.45;1.33;;;;;;;;;;5089689;28;20044;-81
2023/07/12 09:09:19;;;;;;;0.95;0.90;;;;;;;;;;5079211;28;20016;-79
2023/07/12 09:11:46;;;;;;;1.63;0.65;;;;;;;;;;5069823;28;20423;-82
2023/07/12 09:14:17;;;;;;;1.48;1.23;;;;;;;;;;5069369;28;20036;-81
2023/07/12 09:16:45;;;;;;;4.30;0.98;;;;;;;;;;5069991;28;20088;-78
2023/07/12 09:19:15;;;;;;;0.60;0.60;;;;;;;;;;5080448;28;20024;-79
2023/07/12 09:21:41;;;;;;;10.82;10.02;;;;;;;;;;5071171;28;20414;-79
2023/07/12 09:24:11;;;;;;;1.92;1.73;;;;;;;;;;5067193;28;20021;-78
2023/07/12 09:26:36;;;;;;;0.55;0.55;;;;;;;;;;5050825;28;20190;-80
2023/07/12 09:29:05;;;;;;;1.08;1.00;;;;;;;;;;5069800;28;20481;-79
2023/07/12 09:31:32;;;;;;;0.75;0.73;;;;;;;;;;5084475;28;20032;-80
2023/07/12 09:34:03;;;;;;;1.83;1.73;;;;;;;;;;5101690;28;20031;-79
2023/07/12 09:36:29;;;;;;;1.85;0.50;;;;;;;;;;5095997;28;20036;-80
2023/07/12 09:39:01;;;;;;;0.60;0.60;;;;;;;;;;5089290;28;20028;-80
2023/07/12 09:41:27;;;;;;;0.80;0.80;;;;;;;;;;5088437;28;20073;-81
2023/07/12 09:43:54;;;;;;;0.40;0.40;;;;;;;;;;5069881;28;20487;-80
2023/07/12 09:46:32;;;;;;;0.57;0.57;;;;;;;;;;5070630;28;20153;-81
2023/07/12 09:49:04;;;;;;;0.65;0.65;;;;;;;;;;5085941;28;20032;-80
2023/07/12 09:51:30;;;;;;;2.78;2.65;;;;;;;;;;5088105;28;20051;-83
2023/07/12 09:53:59;;;;;;;0.60;0.60;;;;;;;;;;5085272;28;20031;-83
2023/07/12 09:56:43;;;;;;;3.10;0.95;;;;;;;;;;5077320;28;20115;-83
2023/07/12 09:59:09;;;;;;;0.68;0.65;;;;;;;;;;5075831;28;20021;-82
2023/07/12 10:01:44;;;;;;;0.65;0.65;;;;;;;;;;5069025;28;20061;-80
2023/07/12 10:04:15;;;;;;;0.40;0.40;;;;;;;;;;5086929;28;20494;-81
2023/07/12 10:06:44;;;;;;;2.28;2.08;;;;;;;;;;5069877;28;20044;-81
2023/07/12 10:09:13;;;;;;;2.75;1.45;;;;;;;;;;5081330;28;20033;-81
2023/07/12 10:11:58;;;;;;;0.70;0.70;;;;;;;;;;5068812;28;20040;-79
2023/07/12 10:14:29;;;;;;;1.23;1.05;;;;;;;;;;5076796;28;20081;-84
2023/07/12 10:16:55;;;;;;;0.70;0.70;;;;;;;;;;5090622;28;20154;-80
2023/07/12 10:19:26;;;;;;;0.52;0.52;;;;;;;;;;5077281;28;20043;-83
2023/07/12 10:21:54;;;;;;;1.83;1.70;;;;;;;;;;5080710;28;20039;-76
2023/07/12 10:24:21;;;;;;;1.30;1.20;;;;;;;;;;5069460;28;20032;-79
2023/07/12 10:26:47;;;;;;;0.50;0.50;;;;;;;;;;5088111;28;20372;-77
2023/07/12 10:29:16;;;;;;;1.13;0.90;;;;;;;;;;5079429;28;20024;-81
2023/07/12 10:31:43;;;;;;;0.50;0.50;;;;;;;;;;5085576;28;20028;-78
2023/07/12 10:34:17;;;;;;;0.60;0.60;;;;;;;;;;5088369;28;20487;-79
2023/07/12 10:36:44;;;;;;;1.90;0.90;;;;;;;;;;5088408;28;20480;-78
2023/07/12 10:39:10;;;;;;;0.60;0.60;;;;;;;;;;5087215;28;20032;-80
2023/07/12 10:41:42;;;;;;;1.08;0.60;;;;;;;;;;5070833;28;20092;-80
2023/07/12 10:44:13;;;;;;;0.88;0.80;;;;;;;;;;5072456;28;20039;-80
2023/07/12 10:46:41;;;;;;;2.92;2.22;;;;;;;;;;5090199;28;20474;-80
2023/07/12 10:49:13;;;;;;;0.50;0.50;;;;;;;;;;5089013;28;20052;-79
2023/07/12 10:51:40;;;;;;;0.70;0.70;;;;;;;;;;5068755;28;20028;-83
2023/07/12 10:54:26;;;;;;;0.50;0.50;;;;;;;;;;5068765;28;20024;-82
2023/07/12 10:56:52;;;;;;;0.45;0.45;;;;;;;;;;5050099;28;20395;-80
2023/07/12 10:59:33;;;;;;;0.60;0.60;;;;;;;;;;5068077;28;20047;-80
2023/07/12 11:02:18;;;;;;;0.60;0.60;;;;;;;;;;5049652;28;20067;-79
2023/07/12 11:04:45;;;;;;;1.33;0.98;;;;;;;;;;5066908;28;20071;-77
2023/07/12 11:07:10;;;;;;;0.70;0.70;;;;;;;;;;5067552;28;20608;-77
2023/07/12 11:09:42;;;;;;;0.70;0.70;;;;;;;;;;5067900;28;20131;-76
2023/07/12 11:12:08;;;;;;;0.50;0.50;;;;;;;;;;5069204;28;20480;-77
2023/07/12 11:14:37;;;;;;;1.30;0.98;;;;;;;;;;5066096;28;20681;-77
2023/07/12 11:17:11;;;;;;;0.40;0.40;;;;;;;;;;5082989;28;20024;-77
2023/07/12 11:19:40;;;;;;;0.73;0.73;;;;;;;;;;5068385;28;20537;-77
2023/07/12 11:22:14;;;;;;;1.77;1.38;;;;;;;;;;5070563;28;20107;-77
2023/07/12 11:24:49;;;;;;;0.80;0.80;;;;;;;;;;5079594;28;20028;-77
2023/07/12 11:27:25;;;;;;;0.60;0.60;;;;;;;;;;5089535;28;20415;-78
2023/07/12 11:29:53;;;;;;;0.50;0.50;;;;;;;;;;5089199;28;20032;-81
2023/07/12 11:32:22;;;;;;;0.93;0.88;;;;;;;;;;5059415;28;20033;-77
2023/07/12 11:34:49;;;;;;;3.00;1.20;;;;;;;;;;5070096;28;20088;-77
2023/07/12 11:37:23;;;;;;;0.52;0.52;;;;;;;;;;5062548;28;20020;-79
2023/07/12 11:39:49;;;;;;;0.63;0.63;;;;;;;;;;5089493;28;20028;-78
2023/07/12 11:42:25;;;;;;;0.70;0.70;;;;;;;;;;5089764;28;20036;-80
2023/07/12 11:45:01;;;;;;;1.88;1.13;;;;;;;;;;5073739;28;20475;-77
2023/07/12 11:47:27;;;;;;;1.45;1.05;;;;;;;;;;5090342;28;20137;-79
2023/07/12 11:49:55;;;;;;;1.13;1.02;;;;;;;;;;5089438;28;20483;-79
2023/07/12 11:52:21;;;;;;;1.20;0.55;;;;;;;;;;5076454;28;20434;-78
2023/07/12 11:54:47;;;;;;;1.60;1.27;;;;;;;;;;5082707;28;20036;-77
2023/07/12 11:57:13;;;;;;;2.13;1.90;;;;;;;;;;5084835;28;20033;-79
2023/07/12 11:59:41;;;;;;;3.10;1.38;;;;;;;;;;5079090;28;20081;-77
2023/07/12 12:02:12;;;;;;;0.57;0.57;;;;;;;;;;5071650;28;20040;-78
2023/07/12 12:04:38;;;;;;;3.13;1.08;;;;;;;;;;5090638;28;20028;-76
2023/07/12 12:07:12;;;;;;;3.42;1.85;;;;;;;;;;5090404;28;20043;-77
2023/07/12 12:09:38;;;;;;;1.77;1.33;;;;;;;;;;5088669;28;20040;-77
2023/07/12 12:12:06;;;;;;;1.33;0.80;;;;;;;;;;5088495;28;20024;-78
2023/07/12 12:14:38;;;;;;;1.50;1.40;;;;;;;;;;5087823;28;20035;-78
2023/07/12 12:17:05;;;;;;;1.25;1.20;;;;;;;;;;5088509;28;20020;-77
2023/07/12 12:19:31;;;;;;;0.60;0.60;;;;;;;;;;5093787;28;20479;-79
2023/07/12 12:22:06;;;;;;;2.63;1.67;;;;;;;;;;5101276;28;20494;-78
2023/07/12 12:24:39;;;;;;;0.77;0.73;;;;;;;;;;5113050;28;20039;-81
2023/07/12 12:27:13;;;;;;;1.15;1.00;;;;;;;;;;5111464;28;20040;-81
2023/07/12 12:29:38;;;;;;;0.60;0.60;;;;;;;;;;5090161;28;20040;-79
2023/07/12 12:32:04;;;;;;;0.90;0.85;;;;;;;;;;5089184;28;20036;-80
2023/07/12 12:34:51;;;;;;;1.35;1.25;;;;;;;;;;5087051;28;20093;-79
2023/07/12 12:37:17;;;;;;;1.27;0.93;;;;;;;;;;5090943;28;20392;-79
2023/07/12 12:39:56;;;;;;;3.28;0.93;;;;;;;;;;5093831;28;20433;-78
2023/07/12 12:42:22;;;;;;;0.73;0.68;;;;;;;;;;5081944;28;20123;-79
2023/07/12 12:44:48;;;;;;;2.28;0.70;;;;;;;;;;5089389;28;20048;-79
2023/07/12 12:47:15;;;;;;;1.20;1.10;;;;;;;;;;5093027;28;20036;-80
2023/07/12 12:49:41;;;;;;;1.95;1.00;;;;;;;;;;5088134;28;20028;-78
2023/07/12 12:52:25;;;;;;;1.63;1.27;;;;;;;;;;5069091;28;20032;-79
2023/07/12 12:54:51;;;;;;;0.70;0.70;;;;;;;;;;5070529;28;20391;-79
2023/07/12 12:57:17;;;;;;;1.40;1.02;;;;;;;;;;5090284;28;20078;-77
2023/07/12 12:59:43;;;;;;;9.70;1.73;;;;;;;;;;5087910;28;20503;-77
2023/07/12 13:02:13;;;;;;;0.50;0.50;;;;;;;;;;5089523;28;20093;-76
2023/07/12 13:04:39;;;;;;;6.35;1.48;;;;;;;;;;5090479;28;20390;-77
2023/07/12 13:07:09;;;;;;;3.85;1.20;;;;;;;;;;5090087;28;20039;-78
2023/07/12 13:09:35;;;;;;;0.85;0.85;;;;;;;;;;5089765;28;20483;-75
2023/07/12 13:12:01;;;;;;;2.78;0.93;;;;;;;;;;5089414;28;20105;-76
2023/07/12 13:14:26;;;;;;;0.95;0.80;;;;;;;;;;5087762;28;20046;-74
2023/07/12 13:16:52;;;;;;;1.05;1.02;;;;;;;;;;5090213;28;20060;-76
2023/07/12 13:19:17;;;;;;;1.10;1.00;;;;;;;;;;5090286;28;20024;-75
2023/07/12 13:21:43;;;;;;;0.57;0.57;;;;;;;;;;5085936;28;20024;-74
2023/07/12 13:24:09;;;;;;;1.35;1.23;;;;;;;;;;5070389;28;20040;-77
2023/07/12 13:26:37;;;;;;;1.20;1.10;;;;;;;;;;5051522;28;20308;-79
2023/07/12 13:29:05;;;;;;;3.65;1.00;;;;;;;;;;5090007;28;20142;-77
2023/07/12 13:31:30;;;;;;;1.00;0.77;;;;;;;;;;5089896;28;20032;-75
2023/07/12 13:33:56;;;;;;;0.90;0.80;;;;;;;;;;5089837;28;20274;-74
2023/07/12 13:36:21;;;;;;;2.00;1.10;;;;;;;;;;5089780;28;20361;-75
2023/07/12 13:38:47;;;;;;;0.40;0.40;;;;;;;;;;5089843;28;20510;-75
2023/07/12 13:41:12;;;;;;;1.25;1.15;;;;;;;;;;5089874;28;20454;-74
2023/07/12 13:43:38;;;;;;;3.25;2.55;;;;;;;;;;5089400;28;20032;-74
2023/07/12 13:46:13;;;;;;;1.63;0.75;;;;;;;;;;5089733;28;20543;-74
2023/07/12 13:48:40;;;;;;;0.70;0.70;;;;;;;;;;5071872;28;20036;-75
2023/07/12 13:51:15;;;;;;;2.45;1.10;;;;;;;;;;5089899;28;20032;-73
2023/07/12 13:53:40;;;;;;;2.85;1.33;;;;;;;;;;5090028;28;20032;-74
2023/07/12 13:56:06;;;;;;;1.30;1.10;;;;;;;;;;5093868;28;20255;-75
2023/07/12 13:58:31;;;;;;;1.35;1.05;;;;;;;;;;5088198;28;20043;-75
2023/07/12 14:00:57;;;;;;;0.40;0.40;;;;;;;;;;5086467;28;20028;-76
2023/07/12 14:03:23;;;;;;;2.92;1.10;;;;;;;;;;5087868;28;20025;-75
2023/07/12 14:05:48;;;;;;;0.63;0.63;;;;;;;;;;5073741;28;20554;-75
2023/07/12 14:08:14;;;;;;;1.10;1.05;;;;;;;;;;5065553;28;20021;-77
2023/07/12 14:10:39;;;;;;;2.08;0.73;;;;;;;;;;5065844;28;20139;-76
2023/07/12 14:13:15;;;;;;;6.63;1.27;;;;;;;;;;5070567;28;20491;-76
2023/07/12 14:15:40;;;;;;;0.75;0.75;;;;;;;;;;5089627;28;20032;-75
2023/07/12 14:18:08;;;;;;;1.02;0.93;;;;;;;;;;5069794;28;20038;-76
2023/07/12 14:20:34;;;;;;;0.40;0.40;;;;;;;;;;5070813;28;20024;-76
2023/07/12 14:22:59;;;;;;;0.60;0.60;;;;;;;;;;5088748;28;20031;-75
2023/07/12 14:25:25;;;;;;;4.80;1.08;;;;;;;;;;5077016;28;20388;-76
2023/07/12 14:27:50;;;;;;;0.70;0.60;;;;;;;;;;5068915;28;20044;-74
2023/07/12 14:30:16;;;;;;;1.35;1.25;;;;;;;;;;5050910;28;20039;-76
2023/07/12 14:32:44;;;;;;;0.55;0.55;;;;;;;;;;5068786;28;20032;-76
2023/07/12 14:35:19;;;;;;;0.50;0.50;;;;;;;;;;5084606;28;20064;-75
2023/07/12 14:37:45;;;;;;;0.70;0.70;;;;;;;;;;5089108;28;20069;-77
2023/07/12 14:40:14;;;;;;;4.45;2.55;;;;;;;;;;5088843;28;20383;-78
2023/07/12 14:42:40;;;;;;;0.52;0.52;;;;;;;;;;5089390;28;20031;-76